Time;durP1;ratioP1;P1;durP2;ratioP2;P2;SDS_P1;SDS_P2;PMS_P1;PMS_P2;Temp;Humidity;BMP_temperature;BMP_pressure;BME280_temperature;BME280_humidity;BME280_pressure;Samples;Min_cycle;Max_cycle;Signal;HPM_P1;HPM_P2
2022/01/13 00:01:16;;;;;;;44.73;22.30;;;;;;;-2.84;100.00;101995.97;5092037;28;20592;-73
2022/01/13 00:03:43;;;;;;;48.03;20.00;;;;;;;-2.76;100.00;102005.25;5077343;28;20201;-73
2022/01/13 00:06:10;;;;;;;46.27;18.03;;;;;;;-2.61;100.00;102006.75;5071677;28;20725;-73
2022/01/13 00:08:38;;;;;;;51.33;16.93;;;;;;;-2.53;100.00;102003.28;5071312;28;20198;-73
2022/01/13 00:11:05;;;;;;;32.97;14.80;;;;;;;-2.39;100.00;101998.66;5071875;28;20287;-73
2022/01/13 00:13:45;;;;;;;44.47;17.37;;;;;;;-2.35;100.00;102005.81;5072110;28;20199;-73
2022/01/13 00:16:36;;;;;;;28.90;12.73;;;;;;;-2.18;100.00;102033.75;5072029;28;20248;-73
2022/01/13 00:19:17;;;;;;;20.57;10.33;;;;;;;-2.23;100.00;102038.38;5071643;28;20206;-73
2022/01/13 00:21:50;;;;;;;22.07;10.90;;;;;;;-2.25;100.00;102042.44;5071894;28;20202;-73
2022/01/13 00:24:19;;;;;;;23.23;9.77;;;;;;;-2.19;100.00;102042.13;5071872;28;20257;-74
2022/01/13 00:26:47;;;;;;;22.80;10.80;;;;;;;-2.28;100.00;102033.63;5071384;28;20203;-73
2022/01/13 00:29:19;;;;;;;18.37;9.10;;;;;;;-2.34;100.00;102033.00;5071476;28;20241;-73
2022/01/13 00:31:46;;;;;;;18.10;8.27;;;;;;;-2.42;100.00;102038.97;5071732;28;20226;-73
2022/01/13 00:34:13;;;;;;;18.80;9.40;;;;;;;-2.47;100.00;102030.03;5071841;28;20220;-73
2022/01/13 00:36:42;;;;;;;15.50;9.10;;;;;;;-2.31;100.00;102035.84;5071798;28;20186;-73
2022/01/13 00:39:10;;;;;;;22.13;11.17;;;;;;;-2.46;100.00;101989.53;5076579;28;20190;-73
2022/01/13 00:41:39;;;;;;;21.60;9.73;;;;;;;-2.15;100.00;102024.78;5091924;28;20200;-73
2022/01/13 00:44:08;;;;;;;18.43;11.23;;;;;;;-2.30;100.00;101990.28;5091638;28;20205;-73
2022/01/13 00:46:42;;;;;;;20.40;10.10;;;;;;;-2.07;100.00;102028.06;5084386;28;20745;-73
2022/01/13 00:49:09;;;;;;;24.23;12.90;;;;;;;-2.36;100.00;101989.69;5071412;28;20273;-73
2022/01/13 00:51:36;;;;;;;20.87;12.03;;;;;;;-2.16;100.00;102032.25;5076316;28;20210;-73
2022/01/13 00:54:05;;;;;;;24.27;11.67;;;;;;;-2.15;100.00;102032.41;5075233;28;20252;-73
2022/01/13 00:56:32;;;;;;;25.43;12.17;;;;;;;-2.13;100.00;102030.00;5082480;28;20202;-73
2022/01/13 00:59:01;;;;;;;28.17;11.63;;;;;;;-2.08;100.00;102031.34;5075150;28;20191;-73
2022/01/13 01:01:28;;;;;;;21.47;11.47;;;;;;;-2.09;100.00;102032.09;5080143;28;20191;-73
2022/01/13 01:03:55;;;;;;;18.67;11.50;;;;;;;-2.34;100.00;101982.22;5071508;28;20195;-73
2022/01/13 01:06:22;;;;;;;26.40;11.77;;;;;;;-1.95;100.00;102041.94;5089218;28;20748;-73
2022/01/13 01:08:49;;;;;;;25.50;12.23;;;;;;;-1.90;100.00;102037.28;5090914;28;20194;-73
2022/01/13 01:11:16;;;;;;;27.00;12.37;;;;;;;-1.77;100.00;102042.78;5091593;28;20229;-73
2022/01/13 01:13:46;;;;;;;25.40;12.57;;;;;;;-1.70;100.00;102035.88;5091213;28;20738;-73
2022/01/13 01:16:14;;;;;;;25.43;13.10;;;;;;;-1.76;100.00;102050.56;5091689;28;20225;-72
2022/01/13 01:18:52;;;;;;;33.43;15.80;;;;;;;-1.82;100.00;102049.97;5071961;28;20214;-71
2022/01/13 01:21:52;;;;;;;41.83;15.53;;;;;;;-1.72;100.00;102050.13;5071383;28;20311;-72
2022/01/13 01:27:17;;;;;;;27.37;13.80;;;;;;;-1.59;100.00;102047.97;5071943;28;20559;-72
2022/01/13 01:29:52;;;;;;;26.90;10.97;;;;;;;-1.54;100.00;102041.69;5071318;28;20205;-71
2022/01/13 01:32:20;;;;;;;31.73;12.90;;;;;;;-1.48;100.00;102038.81;5071201;28;20317;-71
2022/01/13 01:34:55;;;;;;;24.83;12.20;;;;;;;-1.49;100.00;102039.53;5071095;28;20560;-72
2022/01/13 01:37:26;;;;;;;27.37;13.33;;;;;;;-1.80;100.00;101991.66;5072367;28;20582;-74
2022/01/13 01:39:54;;;;;;;27.30;12.37;;;;;;;-1.62;100.00;102055.31;5074001;28;20198;-72
2022/01/13 01:42:22;;;;;;;25.33;11.90;;;;;;;-1.53;100.00;102035.81;5074771;28;20191;-72
2022/01/13 01:44:52;;;;;;;24.50;11.10;;;;;;;-1.51;100.00;102049.59;5074241;28;20191;-72
2022/01/13 01:47:21;;;;;;;22.17;11.60;;;;;;;-1.45;100.00;102038.19;5074696;28;20191;-72
2022/01/13 01:49:52;;;;;;;26.50;12.13;;;;;;;-1.54;100.00;102044.22;5074271;28;20206;-73
2022/01/13 01:52:21;;;;;;;29.17;12.73;;;;;;;-1.47;100.00;102039.69;5074406;28;20603;-72
2022/01/13 01:54:48;;;;;;;27.50;12.67;;;;;;;-1.47;100.00;102044.78;5090005;28;20194;-72
2022/01/13 01:57:17;;;;;;;28.13;11.93;;;;;;;-1.49;100.00;102047.19;5094753;28;20591;-72
2022/01/13 01:59:44;;;;;;;28.03;11.97;;;;;;;-1.43;100.00;102041.78;5094246;28;20669;-72
2022/01/13 02:02:14;;;;;;;25.40;12.20;;;;;;;-1.45;100.00;102044.16;5094672;28;20194;-72
2022/01/13 02:04:43;;;;;;;30.63;14.27;;;;;;;-1.44;100.00;102048.50;5076233;28;20190;-72
2022/01/13 02:07:10;;;;;;;34.40;12.63;;;;;;;-1.33;100.00;102045.34;5080269;28;20198;-72
2022/01/13 02:09:41;;;;;;;29.00;12.80;;;;;;;-1.21;100.00;102045.56;5092723;28;20193;-72
2022/01/13 02:12:13;;;;;;;34.73;12.97;;;;;;;-1.15;100.00;102043.59;5075437;28;20229;-72
2022/01/13 02:14:54;;;;;;;27.40;12.70;;;;;;;-1.19;100.00;102041.53;5074046;28;20198;-72
2022/01/13 02:17:24;;;;;;;25.87;12.53;;;;;;;-1.18;100.00;102036.53;5074100;28;20273;-72
2022/01/13 02:19:54;;;;;;;26.67;13.03;;;;;;;-1.10;100.00;102034.72;5084964;28;20275;-72
2022/01/13 02:22:24;;;;;;;25.30;12.80;;;;;;;-1.13;100.00;102034.44;5073959;28;20692;-72
2022/01/13 02:24:50;;;;;;;22.37;11.07;;;;;;;-1.24;100.00;102050.34;5084932;28;20217;-72
2022/01/13 02:27:18;;;;;;;25.43;12.33;;;;;;;-1.29;100.00;102041.41;5093885;28;20202;-72
2022/01/13 02:29:45;;;;;;;24.37;13.00;;;;;;;-1.36;100.00;102039.06;5093724;28;20194;-72
2022/01/13 02:32:12;;;;;;;25.17;11.60;;;;;;;-1.42;100.00;102033.38;5093565;28;20275;-72
2022/01/13 02:34:39;;;;;;;25.77;12.37;;;;;;;-1.40;100.00;102045.50;5093595;28;20663;-72
2022/01/13 02:37:06;;;;;;;23.80;11.80;;;;;;;-1.50;100.00;102031.00;5082072;28;20561;-72
2022/01/13 02:39:34;;;;;;;26.30;11.77;;;;;;;-1.55;100.00;102050.06;5072728;28;20304;-72
2022/01/13 02:42:11;;;;;;;21.93;9.60;;;;;;;-1.54;100.00;102039.13;5073662;28;20202;-72
2022/01/13 02:44:45;;;;;;;22.87;10.93;;;;;;;-1.42;100.00;102046.09;5085953;28;20218;-72
2022/01/13 02:47:21;;;;;;;21.97;11.20;;;;;;;-1.43;100.00;102052.88;5093914;28;20187;-72
2022/01/13 02:49:49;;;;;;;27.90;14.47;;;;;;;-1.32;100.00;102046.22;5075342;28;20316;-72
2022/01/13 02:52:16;;;;;;;22.77;11.47;;;;;;;-1.41;100.00;102012.28;5093181;28;20253;-72
2022/01/13 02:54:44;;;;;;;25.33;12.23;;;;;;;-1.15;100.00;102053.78;5092681;28;20194;-72
2022/01/13 02:57:11;;;;;;;26.27;11.10;;;;;;;-1.43;100.00;102016.34;5092973;28;20198;-72
2022/01/13 02:59:37;;;;;;;19.30;10.93;;;;;;;-1.08;100.00;102066.31;5092419;28;20198;-72
2022/01/13 03:02:04;;;;;;;19.23;8.83;;;;;;;-1.09;100.00;102061.97;5093488;28;20202;-72
2022/01/13 03:04:32;;;;;;;14.27;9.17;;;;;;;-1.07;100.00;102056.25;5092981;28;20209;-72
2022/01/13 03:06:58;;;;;;;16.20;10.03;;;;;;;-1.17;100.00;102037.44;5091117;28;20229;-72
2022/01/13 03:09:25;;;;;;;19.13;10.10;;;;;;;-1.08;100.00;102056.13;5099873;28;20218;-72
2022/01/13 03:11:53;;;;;;;17.70;10.13;;;;;;;-0.96;100.00;102049.59;5076403;28;20233;-72
2022/01/13 03:14:20;;;;;;;17.57;9.67;;;;;;;-1.11;100.00;102053.31;5086936;28;20191;-72
2022/01/13 03:16:47;;;;;;;21.10;10.50;;;;;;;-1.25;100.00;102051.13;5081339;28;20605;-72
2022/01/13 03:19:15;;;;;;;24.03;12.33;;;;;;;-1.25;100.00;102051.13;5072323;28;20191;-72
2022/01/13 03:21:42;;;;;;;17.53;10.30;;;;;;;-1.09;100.00;102051.78;5072265;28;20700;-73
2022/01/13 03:24:11;;;;;;;17.93;9.17;;;;;;;-1.01;100.00;102048.31;5073695;28;20191;-72
2022/01/13 03:26:38;;;;;;;23.10;10.70;;;;;;;-0.98;100.00;102040.94;5075807;28;20191;-72
2022/01/13 03:29:17;;;;;;;21.13;10.77;;;;;;;-1.05;100.00;102052.22;5090942;28;20198;-72
2022/01/13 03:31:45;;;;;;;28.47;11.77;;;;;;;-1.19;100.00;102039.88;5072849;28;20222;-73
2022/01/13 03:34:13;;;;;;;31.87;12.17;;;;;;;-1.19;100.00;102038.97;5075876;28;20197;-72
2022/01/13 03:36:41;;;;;;;23.60;11.37;;;;;;;-1.32;100.00;101997.88;5092802;28;20240;-72
2022/01/13 03:39:08;;;;;;;19.10;10.93;;;;;;;-1.09;100.00;102039.06;5071609;28;20347;-72
2022/01/13 03:41:35;;;;;;;22.60;10.80;;;;;;;-1.19;100.00;102052.59;5072949;28;20216;-72
2022/01/13 03:44:07;;;;;;;25.10;12.17;;;;;;;-1.20;100.00;102067.72;5089528;28;20634;-72
2022/01/13 03:46:37;;;;;;;18.60;9.97;;;;;;;-1.31;100.00;102056.53;5083072;28;20633;-72
2022/01/13 03:49:07;;;;;;;20.80;11.80;;;;;;;-1.35;100.00;102066.25;5081285;28;20186;-73
2022/01/13 03:52:33;;;;;;;12.57;6.70;;;;;;;-1.26;100.00;102057.88;5076400;28;20294;-72
2022/01/13 03:55:42;;;;;;;22.10;12.00;;;;;;;-1.32;100.00;102064.03;5078951;28;20678;-73
2022/01/13 03:58:43;;;;;;;19.97;10.60;;;;;;;-1.31;100.00;102061.63;5034271;28;20673;-72
2022/01/13 04:01:44;;;;;;;16.77;10.03;;;;;;;-1.13;100.00;102052.25;5074473;28;20209;-72
2022/01/13 04:04:13;;;;;;;21.57;9.87;;;;;;;-1.12;100.00;102046.41;5072369;28;20191;-72
2022/01/13 04:06:41;;;;;;;22.17;10.53;;;;;;;-0.99;100.00;102049.34;5079800;28;20747;-73
2022/01/13 04:09:29;;;;;;;25.03;12.23;;;;;;;-1.13;100.00;102057.34;5080635;28;20190;-72
2022/01/13 04:11:56;;;;;;;26.50;11.47;;;;;;;-1.10;100.00;102045.78;5082235;28;20619;-73
2022/01/13 04:14:30;;;;;;;25.60;12.60;;;;;;;-1.14;100.00;102063.22;5082059;28;20206;-72
2022/01/13 04:16:56;;;;;;;22.00;11.33;;;;;;;-1.17;100.00;102065.44;5081629;28;20208;-72
2022/01/13 04:19:25;;;;;;;23.97;11.17;;;;;;;-0.96;100.00;102057.25;5085240;28;20214;-72
2022/01/13 04:21:51;;;;;;;27.17;12.60;;;;;;;-0.91;100.00;102065.31;5091858;28;20197;-72
2022/01/13 04:24:18;;;;;;;32.23;13.73;;;;;;;-1.00;100.00;102062.84;5091671;28;20691;-72
2022/01/13 04:26:45;;;;;;;33.30;14.57;;;;;;;-1.00;100.00;102073.88;5091854;28;20300;-73
2022/01/13 04:29:21;;;;;;;33.07;15.90;;;;;;;-0.89;100.00;102067.22;5092008;28;20190;-72
2022/01/13 04:31:50;;;;;;;27.43;12.60;;;;;;;-1.16;100.00;102079.97;5091845;28;20231;-72
2022/01/13 04:34:17;;;;;;;18.73;10.53;;;;;;;-1.02;100.00;102084.69;5091669;28;20266;-72
2022/01/13 04:36:47;;;;;;;21.80;11.63;;;;;;;-1.07;100.00;102075.75;5092046;28;20198;-73
2022/01/13 04:39:15;;;;;;;26.93;13.07;;;;;;;-1.27;100.00;102039.91;5091153;28;20201;-73
2022/01/13 04:41:44;;;;;;;26.23;8.67;;;;;;;-1.03;100.00;102062.53;5092039;28;20642;-72
2022/01/13 04:44:15;;;;;;;20.43;10.00;;;;;;;-1.06;100.00;102068.25;5091487;28;20707;-73
2022/01/13 04:46:42;;;;;;;21.57;6.83;;;;;;;-1.23;100.00;102053.06;5091851;28;20193;-73
2022/01/13 04:49:09;;;;;;;22.57;11.17;;;;;;;-1.13;100.00;102054.78;5092451;28;20276;-72
2022/01/13 04:51:37;;;;;;;27.70;12.70;;;;;;;-1.26;100.00;102062.06;5091913;28;20230;-72
2022/01/13 04:54:06;;;;;;;30.47;11.77;;;;;;;-1.12;100.00;102066.78;5080504;28;20651;-74
2022/01/13 04:56:40;;;;;;;27.40;12.53;;;;;;;-1.27;100.00;102065.34;5071204;28;20197;-73
2022/01/13 04:59:07;;;;;;;22.20;11.60;;;;;;;-1.51;100.00;102006.34;5077342;28;20197;-73
2022/01/13 05:01:35;;;;;;;27.57;12.97;;;;;;;-1.16;100.00;102078.31;5081304;28;20198;-73
2022/01/13 05:04:02;;;;;;;14.23;6.97;;;;;;;-1.15;100.00;102076.69;5083175;28;20195;-73
2022/01/13 05:06:29;;;;;;;28.17;13.87;;;;;;;-1.18;100.00;102077.28;5071191;28;20226;-73
2022/01/13 05:08:56;;;;;;;32.07;14.63;;;;;;;-1.23;100.00;102078.50;5083422;28;20680;-73
2022/01/13 05:11:24;;;;;;;22.47;11.27;;;;;;;-1.39;100.00;102085.44;5093346;28;20657;-73
2022/01/13 05:13:52;;;;;;;29.07;14.27;;;;;;;-1.50;100.00;102053.91;5095418;28;20743;-73
2022/01/13 05:16:22;;;;;;;25.13;11.07;;;;;;;-1.38;100.00;102086.34;5086480;28;20190;-73
2022/01/13 05:18:55;;;;;;;40.73;17.33;;;;;;;-1.41;100.00;102096.22;5079647;28;20282;-73
2022/01/13 05:21:24;;;;;;;37.37;17.30;;;;;;;-1.50;100.00;102093.75;5084135;28;20727;-73
2022/01/13 05:23:52;;;;;;;37.90;13.60;;;;;;;-1.87;100.00;102010.53;5094668;28;20201;-72
2022/01/13 05:26:20;;;;;;;32.60;11.23;;;;;;;-1.45;100.00;102074.69;5095034;28;20668;-73
2022/01/13 05:28:48;;;;;;;20.13;8.37;;;;;;;-1.84;100.00;102018.44;5094898;28;20660;-73
2022/01/13 05:31:15;;;;;;;38.10;15.13;;;;;;;-1.43;100.00;102098.66;5095438;28;20197;-72
2022/01/13 05:33:42;;;;;;;29.60;15.17;;;;;;;-1.55;100.00;102093.28;5094654;28;20734;-71
2022/01/13 05:36:09;;;;;;;34.67;16.20;;;;;;;-1.80;100.00;102095.88;5095105;28;20253;-72
2022/01/13 05:38:37;;;;;;;25.07;11.43;;;;;;;-1.82;100.00;102097.41;5094772;28;20205;-72
2022/01/13 05:41:04;;;;;;;28.07;13.60;;;;;;;-1.69;100.00;102088.53;5094003;28;20660;-73
2022/01/13 05:43:30;;;;;;;29.17;13.97;;;;;;;-1.74;100.00;102094.81;5095708;28;20195;-73
2022/01/13 05:45:58;;;;;;;51.23;21.50;;;;;;;-1.86;100.00;102103.84;5094916;28;20205;-73
2022/01/13 05:48:25;;;;;;;62.27;24.40;;;;;;;-1.68;100.00;102102.16;5094582;28;20672;-72
2022/01/13 05:50:52;;;;;;;44.90;18.87;;;;;;;-1.68;100.00;102107.25;5094842;28;20197;-73
2022/01/13 05:53:19;;;;;;;62.07;23.10;;;;;;;-1.51;100.00;102118.25;5095403;28;20226;-73
2022/01/13 05:55:46;;;;;;;71.93;24.20;;;;;;;-1.71;100.00;102101.88;5094333;28;20625;-73
2022/01/13 05:58:13;;;;;;;49.43;21.10;;;;;;;-1.62;100.00;102121.44;5077543;28;20712;-73
2022/01/13 06:00:40;;;;;;;72.37;28.97;;;;;;;-1.63;100.00;102122.16;5085279;28;20195;-72
2022/01/13 06:03:08;;;;;;;19.97;7.60;;;;;;;-1.54;100.00;102120.53;5086163;28;20201;-72
2022/01/13 06:05:35;;;;;;;24.17;11.63;;;;;;;-1.54;100.00;102117.97;5075046;28;20211;-73
2022/01/13 06:08:03;;;;;;;48.77;19.60;;;;;;;-1.76;100.00;102120.84;5081609;28;20194;-73
2022/01/13 06:10:29;;;;;;;45.73;18.43;;;;;;;-1.63;100.00;102123.81;5093710;28;20195;-73
2022/01/13 06:12:56;;;;;;;54.13;22.73;;;;;;;-1.48;100.00;102132.00;5094359;28;20238;-73
2022/01/13 06:15:25;;;;;;;62.13;24.60;;;;;;;-1.61;100.00;102128.31;5092955;28;20571;-72
2022/01/13 06:17:56;;;;;;;77.30;31.27;;;;;;;-1.70;100.00;102126.53;5078583;28;20715;-73
2022/01/13 06:20:25;;;;;;;29.17;15.23;;;;;;;-1.70;100.00;102132.50;5073334;28;20222;-74
2022/01/13 06:22:53;;;;;;;24.20;12.17;;;;;;;-1.67;100.00;102136.97;5090309;28;20198;-73
2022/01/13 06:25:20;;;;;;;51.03;21.57;;;;;;;-1.71;100.00;102133.25;5086365;28;20190;-72
2022/01/13 06:27:47;;;;;;;29.03;16.17;;;;;;;-1.65;100.00;102145.66;5092801;28;20657;-71
2022/01/13 06:30:15;;;;;;;31.83;15.83;;;;;;;-1.01;100.00;102142.50;5094043;28;20195;-71
2022/01/13 06:32:44;;;;;;;31.67;14.93;;;;;;;-1.09;100.00;102149.41;5091693;28;20214;-71
2022/01/13 06:35:12;;;;;;;26.37;13.00;;;;;;;-1.31;100.00;102154.84;5093443;28;20198;-76
2022/01/13 06:37:41;;;;;;;49.77;20.90;;;;;;;-1.18;100.00;102161.25;5093691;28;20255;-74
2022/01/13 06:40:09;;;;;;;33.53;17.30;;;;;;;-1.66;100.00;102160.03;5092469;28;20209;-74
2022/01/13 06:42:36;;;;;;;60.40;26.47;;;;;;;-1.62;100.00;102167.22;5083240;28;20194;-74
2022/01/13 06:45:04;;;;;;;57.67;26.23;;;;;;;-1.28;100.00;102171.31;5074162;28;20198;-73
2022/01/13 06:47:30;;;;;;;38.93;19.27;;;;;;;-1.22;100.00;102179.56;5090678;28;20621;-75
2022/01/13 06:49:58;;;;;;;35.17;15.67;;;;;;;-1.37;100.00;102177.19;5093206;28;20614;-75
2022/01/13 06:52:24;;;;;;;31.80;15.53;;;;;;;-1.36;100.00;102184.06;5093436;28;20205;-73
2022/01/13 06:54:53;;;;;;;22.57;14.77;;;;;;;-1.53;100.00;102188.44;5093165;28;20268;-74
2022/01/13 06:57:20;;;;;;;37.73;16.20;;;;;;;-1.44;100.00;102167.16;5093192;28;20198;-75
2022/01/13 06:59:47;;;;;;;18.30;11.07;;;;;;;-1.73;100.00;102109.34;5093379;28;20285;-75
2022/01/13 07:02:14;;;;;;;31.70;11.70;;;;;;;-1.43;100.00;102180.06;5093553;28;20217;-79
2022/01/13 07:04:41;;;;;;;27.63;13.00;;;;;;;-1.66;100.00;102182.91;5093166;28;20243;-75
2022/01/13 07:07:08;;;;;;;30.10;14.47;;;;;;;-1.40;100.00;102194.69;5093057;28;20193;-75
2022/01/13 07:09:35;;;;;;;24.37;14.07;;;;;;;-1.60;100.00;102190.22;5092436;28;20202;-74
2022/01/13 07:12:03;;;;;;;44.47;21.50;;;;;;;-1.52;100.00;102195.31;5087040;28;20233;-74
2022/01/13 07:14:30;;;;;;;38.53;19.93;;;;;;;-1.39;100.00;102188.88;5076712;28;20226;-73
2022/01/13 07:16:57;;;;;;;34.17;17.70;;;;;;;-1.10;100.00;102205.25;5090136;28;20202;-75
2022/01/13 07:19:24;;;;;;;37.03;18.00;;;;;;;-1.19;100.00;102196.75;5092101;28;20218;-75
2022/01/13 07:21:51;;;;;;;38.13;18.43;;;;;;;-1.37;100.00;102195.00;5092640;28;20190;-74
2022/01/13 07:24:18;;;;;;;26.67;12.80;;;;;;;-1.24;100.00;102197.94;5092837;28;20225;-74
2022/01/13 07:26:44;;;;;;;31.07;14.37;;;;;;;-1.36;100.00;102186.63;5092637;28;20194;-74
2022/01/13 07:29:13;;;;;;;30.07;13.93;;;;;;;-1.22;100.00;102206.66;5092365;28;20194;-75
2022/01/13 07:31:39;;;;;;;31.67;17.70;;;;;;;-1.51;100.00;102199.66;5092161;28;20205;-73
2022/01/13 07:34:07;;;;;;;33.63;16.27;;;;;;;-1.25;100.00;102201.25;5092158;28;20734;-74
2022/01/13 07:36:34;;;;;;;35.83;16.23;;;;;;;-1.38;100.00;102203.38;5092066;28;20301;-74
2022/01/13 07:39:01;;;;;;;24.17;11.13;;;;;;;-1.36;100.00;102195.16;5091364;28;20190;-73
2022/01/13 07:41:28;;;;;;;46.37;20.33;;;;;;;-1.48;100.00;102201.59;5092158;28;20668;-73
2022/01/13 07:43:55;;;;;;;33.83;14.23;;;;;;;-1.46;100.00;102204.31;5092133;28;20197;-74
2022/01/13 07:46:25;;;;;;;50.60;22.07;;;;;;;-1.49;100.00;102212.50;5092357;28;20218;-73
2022/01/13 07:48:52;;;;;;;35.63;15.67;;;;;;;-1.28;100.00;102216.22;5091573;28;20588;-73
2022/01/13 07:51:19;;;;;;;39.70;19.33;;;;;;;-1.58;100.00;102204.91;5092020;28;20727;-73
2022/01/13 07:53:46;;;;;;;35.83;17.53;;;;;;;-1.43;100.00;102214.75;5092121;28;20245;-73
2022/01/13 07:56:13;;;;;;;41.00;17.23;;;;;;;-1.30;100.00;102210.09;5091812;28;20251;-73
2022/01/13 07:58:40;;;;;;;35.93;17.53;;;;;;;-1.54;100.00;102196.81;5091587;28;20262;-74
2022/01/13 08:01:08;;;;;;;46.73;20.23;;;;;;;-1.03;100.00;102223.78;5091750;28;20669;-74
2022/01/13 08:03:36;;;;;;;55.90;25.97;;;;;;;-1.05;100.00;102222.78;5091951;28;20194;-74
2022/01/13 08:06:04;;;;;;;60.17;28.23;;;;;;;-1.08;100.00;102221.56;5091436;28;20278;-73
2022/01/13 08:08:31;;;;;;;65.90;29.90;;;;;;;-1.43;100.00;102146.06;5091443;28;20425;-73
2022/01/13 08:10:58;;;;;;;37.33;15.90;;;;;;;-1.09;100.00;102225.78;5091022;28;20270;-72
2022/01/13 08:13:25;;;;;;;43.47;20.40;;;;;;;-1.17;100.00;102231.75;5091593;28;20615;-72
2022/01/13 08:15:54;;;;;;;30.70;15.37;;;;;;;-1.20;100.00;102235.66;5091817;28;20194;-73
2022/01/13 08:21:06;;;;;;;33.97;19.13;;;;;;;-1.49;100.00;102232.84;5090680;28;20236;-75
2022/01/13 08:23:33;;;;;;;21.90;11.60;;;;;;;-1.50;100.00;102233.63;5091102;28;20194;-74
2022/01/13 08:26:00;;;;;;;69.40;27.37;;;;;;;-1.36;100.00;102232.41;5090724;28;20194;-74
2022/01/13 08:28:28;;;;;;;31.77;17.20;;;;;;;-1.25;100.00;102232.66;5090572;28;20620;-74
2022/01/13 08:30:55;;;;;;;36.30;17.20;;;;;;;-1.19;100.00;102234.91;5090786;28;20190;-74
2022/01/13 08:33:23;;;;;;;32.10;14.10;;;;;;;-1.33;100.00;102241.25;5091000;28;20237;-74
2022/01/13 08:35:50;;;;;;;18.73;10.97;;;;;;;-1.25;100.00;102242.84;5090942;28;20241;-74
2022/01/13 08:38:18;;;;;;;40.67;16.97;;;;;;;-1.21;100.00;102256.75;5090825;28;20194;-73
2022/01/13 08:40:46;;;;;;;33.27;11.87;;;;;;;-1.08;100.00;102249.56;5089988;28;20285;-73
2022/01/13 08:43:13;;;;;;;24.80;11.97;;;;;;;-1.13;100.00;102253.31;5090468;28;20190;-75
2022/01/13 08:45:39;;;;;;;33.17;16.27;;;;;;;-1.09;100.00;102251.22;5091150;28;20693;-74
2022/01/13 08:48:06;;;;;;;29.60;15.27;;;;;;;-1.03;100.00;102243.25;5095076;28;20198;-74
2022/01/13 08:50:33;;;;;;;30.37;13.83;;;;;;;-1.15;100.00;102245.56;5094538;28;20687;-73
2022/01/13 08:53:00;;;;;;;34.90;16.87;;;;;;;-1.20;100.00;102220.41;5094425;28;20209;-74
2022/01/13 08:55:28;;;;;;;38.60;16.73;;;;;;;-1.05;100.00;102238.03;5094610;28;20198;-74
2022/01/13 08:57:55;;;;;;;29.37;13.60;;;;;;;-1.12;100.00;102209.31;5094397;28;20198;-76
2022/01/13 09:00:22;;;;;;;26.20;11.47;;;;;;;-1.06;100.00;102237.88;5085027;28;20202;-74
2022/01/13 09:02:49;;;;;;;17.43;8.97;;;;;;;-1.23;100.00;102222.66;5094981;28;20576;-72
2022/01/13 09:05:18;;;;;;;39.47;18.97;;;;;;;-1.34;100.00;102218.19;5094988;28;20222;-73
2022/01/13 09:07:46;;;;;;;8.33;5.17;;;;;;;-1.10;100.00;102233.25;5092861;28;20194;-74
2022/01/13 09:10:14;;;;;;;53.43;24.33;;;;;;;-0.97;100.00;102213.31;5086242;28;20598;-73
2022/01/13 09:12:43;;;;;;;55.77;27.27;;;;;;;-0.78;100.00;102214.28;5074001;28;20195;-74
2022/01/13 09:15:19;;;;;;;27.67;13.53;;;;;;;-0.79;100.00;102207.41;5074458;28;20283;-73
2022/01/13 09:17:51;;;;;;;31.07;15.30;;;;;;;-1.03;100.00;102189.81;5074746;28;20233;-74
2022/01/13 09:20:18;;;;;;;27.70;15.20;;;;;;;-0.75;100.00;102194.19;5074665;28;20297;-74
2022/01/13 09:22:45;;;;;;;18.83;10.33;;;;;;;-0.80;100.00;102192.88;5074723;28;20199;-74
2022/01/13 09:25:12;;;;;;;34.03;15.27;;;;;;;-0.41;100.00;102193.13;5082173;28;20675;-74
2022/01/13 09:27:40;;;;;;;32.23;11.03;;;;;;;-0.49;100.00;102176.22;5094491;28;20597;-74
2022/01/13 09:30:09;;;;;;;34.13;14.60;;;;;;;-0.48;100.00;102154.19;5094038;28;20225;-74
2022/01/13 09:32:37;;;;;;;29.17;14.27;;;;;;;-0.46;100.00;102173.09;5093903;28;20198;-73
2022/01/13 09:35:06;;;;;;;23.30;12.40;;;;;;;-0.61;100.00;102132.69;5093528;28;20651;-73
2022/01/13 09:37:33;;;;;;;39.00;15.67;;;;;;;-0.72;100.00;102099.38;5094158;28;20199;-74
2022/01/13 09:40:00;;;;;;;28.33;14.00;;;;;;;-0.29;100.00;102165.31;5092717;28;20584;-73
2022/01/13 09:42:28;;;;;;;15.07;9.43;;;;;;;-0.20;100.00;102154.31;5093847;28;20194;-73
2022/01/13 09:44:55;;;;;;;34.40;13.67;;;;;;;-0.26;100.00;102142.66;5093032;28;20284;-74
2022/01/13 09:47:23;;;;;;;11.87;5.30;;;;;;;-0.15;100.00;102131.78;5091864;28;20202;-74
2022/01/13 09:49:51;;;;;;;24.33;12.47;;;;;;;0.05;100.00;102120.81;5084902;28;20198;-74
2022/01/13 09:52:20;;;;;;;33.87;13.20;;;;;;;0.26;100.00;102128.72;5093566;28;20190;-73
2022/01/13 09:54:47;;;;;;;31.37;14.23;;;;;;;-0.26;100.00;102112.97;5093355;28;20705;-73
2022/01/13 09:57:14;;;;;;;27.83;14.27;;;;;;;-0.13;100.00;102115.84;5092661;28;20190;-73
2022/01/13 09:59:41;;;;;;;28.67;14.07;;;;;;;-0.06;100.00;102114.75;5093709;28;20259;-74
2022/01/13 10:02:08;;;;;;;31.10;13.73;;;;;;;0.18;100.00;102109.28;5094003;28;20198;-75
2022/01/13 10:04:50;;;;;;;28.37;13.70;;;;;;;0.13;100.00;102107.09;5094340;28;20198;-74
2022/01/13 10:07:30;;;;;;;19.03;10.60;;;;;;;0.09;100.00;102126.31;5094301;28;20194;-77
2022/01/13 10:10:00;;;;;;;47.83;17.47;;;;;;;0.19;100.00;102118.72;5093280;28;20577;-75
2022/01/13 10:12:30;;;;;;;30.53;13.47;;;;;;;0.29;100.00;102126.44;5087503;28;20209;-76
2022/01/13 10:17:47;;;;;;;28.57;13.17;;;;;;;0.24;100.00;102137.91;5094190;28;20205;-75
2022/01/13 10:20:18;;;;;;;27.67;12.33;;;;;;;0.35;100.00;102139.75;5093600;28;20245;-74
2022/01/13 10:22:45;;;;;;;23.60;10.77;;;;;;;0.46;100.00;102144.09;5093540;28;20677;-75
2022/01/13 10:25:27;;;;;;;52.10;24.07;;;;;;;0.19;100.00;102108.53;5093727;28;20198;-75
2022/01/13 10:27:54;;;;;;;38.00;20.87;;;;;;;0.44;100.00;102098.81;5093915;28;20186;-77
2022/01/13 10:30:25;;;;;;;30.67;15.67;;;;;;;0.31;100.00;102121.47;5091959;28;20194;-75
2022/01/13 10:32:53;;;;;;;37.40;15.60;;;;;;;0.06;100.00;102126.06;5091820;28;20240;-73
2022/01/13 10:35:23;;;;;;;25.33;11.93;;;;;;;0.19;100.00;102121.28;5089862;28;20598;-73
2022/01/13 10:37:53;;;;;;;34.10;15.03;;;;;;;0.39;100.00;102118.81;5094732;28;20614;-73
2022/01/13 10:40:23;;;;;;;15.23;8.20;;;;;;;0.21;100.00;102107.03;5099370;28;20680;-73
2022/01/13 10:43:07;;;;;;;18.80;8.97;;;;;;;0.14;100.00;102102.13;5102128;28;20197;-74
2022/01/13 10:45:40;;;;;;;29.60;13.83;;;;;;;0.45;100.00;102098.06;5113978;28;20194;-74
2022/01/13 10:48:09;;;;;;;20.67;8.70;;;;;;;0.31;100.00;102099.41;5113684;28;20205;-74
2022/01/13 10:50:40;;;;;;;65.33;30.90;;;;;;;0.04;100.00;102102.06;5113556;28;20196;-75
2022/01/13 10:53:10;;;;;;;34.20;16.60;;;;;;;0.29;100.00;102111.13;5113436;28;20201;-74
2022/01/13 10:55:43;;;;;;;56.13;28.73;;;;;;;0.52;100.00;102107.13;5113797;28;20221;-75
2022/01/13 10:58:10;;;;;;;36.90;17.90;;;;;;;0.62;100.00;102097.88;5113731;28;20193;-74
2022/01/13 11:00:38;;;;;;;26.87;13.33;;;;;;;0.42;100.00;102096.16;5113439;28;20562;-77
2022/01/13 11:03:08;;;;;;;46.37;19.93;;;;;;;0.84;100.00;102118.47;5113486;28;20250;-76
2022/01/13 11:05:40;;;;;;;58.10;21.53;;;;;;;1.03;100.00;102114.19;5113259;28;20229;-75
2022/01/13 11:08:09;;;;;;;44.23;19.97;;;;;;;1.26;100.00;102105.91;5112762;28;20201;-75
2022/01/13 11:10:37;;;;;;;28.90;13.70;;;;;;;0.82;100.00;102099.59;5094276;28;20276;-74
2022/01/13 11:13:06;;;;;;;40.73;10.07;;;;;;;0.67;100.00;102086.41;5092707;28;20201;-74
2022/01/13 11:15:38;;;;;;;21.53;10.47;;;;;;;0.77;100.00;102095.75;5093146;28;20618;-71
2022/01/13 11:18:05;;;;;;;27.17;11.20;;;;;;;0.60;100.00;102078.09;5092859;28;20197;-75
2022/01/13 11:20:32;;;;;;;41.60;8.17;;;;;;;0.46;100.00;102077.75;5092603;28;20222;-74
2022/01/13 11:23:00;;;;;;;21.27;10.83;;;;;;;0.37;100.00;102053.13;5092254;28;20580;-73